Observation data for Abernathy on 06/24/2019      Previous  Date  Next       Current Mesonet Observations  Soil Data  Daily Summary Page  Observations in Plain Language
KARS 240500Z 33000KT 21/08 A2992 RMK A01 T02090080  RH  044%=      5-min Rain = 0
KARS 240505Z 00000KT 21/08 A2992 RMK A01 T02060080  RH  046%=      5-min Rain = 0
KARS 240510Z 16001KT 21/09 A2992 RMK A01 T02050092  RH  050%=      5-min Rain = 0
KARS 240515Z 10006KT 20/11 A2993 RMK A01 T01950110  RH  060%=      5-min Rain = 0
KARS 240520Z 09008G13KT 19/09 A2993 RMK A01 T01920087  RH  052%=      5-min Rain = 0
KARS 240525Z 11010G17KT 22/10 A2993 RMK A01 T02180104  RH  050%=      5-min Rain = 0
KARS 240530Z 09012KT 22/11 A2994 RMK A01 T02210105  RH  049%=      5-min Rain = 0
KARS 240535Z 10009KT 21/11 A2995 RMK A01 T02110106  RH  053%=      5-min Rain = 0
KARS 240540Z 11008KT 21/11 A2994 RMK A01 T02060108  RH  055%=      5-min Rain = 0
KARS 240545Z 11007KT 20/11 A2994 RMK A01 T02030110  RH  057%=      5-min Rain = 0
KARS 240550Z 11008KT 20/11 A2994 RMK A01 T02010112  RH  058%=      5-min Rain = 0
KARS 240555Z 11008KT 20/11 A2994 RMK A01 T02010113  RH  059%=      5-min Rain = 0
KARS 240600Z 12007KT 20/12 A2994 RMK A01 T02010115  RH  060%=      5-min Rain = 0
KARS 240605Z 11009KT 20/12 A2995 RMK A01 T02000117  RH  061%=      5-min Rain = 0
KARS 240610Z 10008KT 20/12 A2995 RMK A01 T02030121  RH  062%=      5-min Rain = 0
KARS 240615Z 10009KT 20/12 A2995 RMK A01 T02040124  RH  062%=      5-min Rain = 0
KARS 240620Z 10009KT 20/13 A2995 RMK A01 T02040128  RH  064%=      5-min Rain = 0
KARS 240625Z 10010KT 21/13 A2995 RMK A01 T02100134  RH  064%=      5-min Rain = 0
KARS 240630Z 10009KT 21/14 A2995 RMK A01 T02120135  RH  064%=      5-min Rain = 0
KARS 240635Z 11008KT 21/13 A2995 RMK A01 T02080133  RH  065%=      5-min Rain = 0
KARS 240640Z 11008KT 21/13 A2995 RMK A01 T02050132  RH  066%=      5-min Rain = 0
KARS 240645Z 10009KT 20/13 A2995 RMK A01 T02030134  RH  067%=      5-min Rain = 0
KARS 240650Z 08009KT 20/14 A2995 RMK A01 T02020135  RH  068%=      5-min Rain = 0
KARS 240655Z 09008KT 20/14 A2995 RMK A01 T02010137  RH  069%=      5-min Rain = 0
KARS 240700Z 10008KT 20/14 A2995 RMK A01 T02010137  RH  070%=      5-min Rain = 0
KARS 240705Z 09007KT 20/14 A2995 RMK A01 T01980137  RH  071%=      5-min Rain = 0
KARS 240710Z 08008KT 20/14 A2995 RMK A01 T01960139  RH  073%=      5-min Rain = 0
KARS 240715Z 07008KT 19/14 A2995 RMK A01 T01940140  RH  074%=      5-min Rain = 0
KARS 240720Z 07010KT 20/15 A2995 RMK A01 T01960146  RH  076%=      5-min Rain = 0
KARS 240725Z 09011KT 20/15 A2995 RMK A01 T02000151  RH  077%=      5-min Rain = 0
KARS 240730Z 09012KT 20/15 A2995 RMK A01 T02040154  RH  077%=      5-min Rain = 0
KARS 240735Z 09011KT 20/15 A2996 RMK A01 T02010154  RH  078%=      5-min Rain = 0
KARS 240740Z 09011KT 20/16 A2996 RMK A01 T02000157  RH  080%=      5-min Rain = 0
KARS 240745Z 09011KT 20/16 A2996 RMK A01 T01990156  RH  080%=      5-min Rain = 0
KARS 240750Z 10010KT 20/16 A2996 RMK A01 T01980156  RH  080%=      5-min Rain = 0
KARS 240755Z 10011KT 20/16 A2996 RMK A01 T01990157  RH  080%=      5-min Rain = 0
KARS 240800Z 10011KT 20/16 A2996 RMK A01 T01980156  RH  080%=      5-min Rain = 0
KARS 240805Z 10011KT 20/16 A2996 RMK A01 T01980156  RH  081%=      5-min Rain = 0
KARS 240810Z 09011KT 20/16 A2996 RMK A01 T01980157  RH  081%=      5-min Rain = 0
KARS 240815Z 10009KT 20/16 A2996 RMK A01 T01970157  RH  081%=      5-min Rain = 0
KARS 240820Z 09009KT 20/16 A2996 RMK A01 T01950157  RH  082%=      5-min Rain = 0
KARS 240825Z 09009KT 19/16 A2996 RMK A01 T01940157  RH  083%=      5-min Rain = 0
KARS 240830Z 08008KT 19/16 A2997 RMK A01 T01920156  RH  083%=      5-min Rain = 0
KARS 240835Z 08008KT 19/15 A2997 RMK A01 T01900154  RH  084%=      5-min Rain = 0
KARS 240840Z 08009KT 19/15 A2997 RMK A01 T01890154  RH  084%=      5-min Rain = 0
KARS 240845Z 08010KT 19/16 A2997 RMK A01 T01900155  RH  084%=      5-min Rain = 0
KARS 240850Z 08010KT 19/16 A2997 RMK A01 T01910156  RH  084%=      5-min Rain = 0
KARS 240855Z 09009KT 19/16 A2997 RMK A01 T01910156  RH  084%=      5-min Rain = 0
KARS 240900Z 08010KT 19/16 A2997 RMK A01 T01910156  RH  084%=      5-min Rain = 0
KARS 240905Z 08010KT 19/16 A2997 RMK A01 T01900157  RH  085%=      5-min Rain = 0
KARS 240910Z 09010KT 19/16 A2997 RMK A01 T01900158  RH  085%=      5-min Rain = 0
KARS 240915Z 09008KT 19/16 A2997 RMK A01 T01890158  RH  086%=      5-min Rain = 0
KARS 240920Z 08009KT 19/16 A2998 RMK A01 T01890158  RH  086%=      5-min Rain = 0
KARS 240925Z 07009KT 19/16 A2998 RMK A01 T01880158  RH  087%=      5-min Rain = 0
KARS 240930Z 06009KT 19/16 A2998 RMK A01 T01870158  RH  087%=      5-min Rain = 0
KARS 240935Z 06011KT 19/16 A2998 RMK A01 T01860156  RH  086%=      5-min Rain = 0
KARS 240940Z 06011KT 19/15 A2998 RMK A01 T01860151  RH  084%=      5-min Rain = 0
KARS 240945Z 06011KT 19/15 A2999 RMK A01 T01850147  RH  082%=      5-min Rain = 0
KARS 240950Z 06010KT 18/15 A2999 RMK A01 T01830148  RH  084%=      5-min Rain = 0
KARS 240955Z 05009KT 18/15 A2999 RMK A01 T01820146  RH  083%=      5-min Rain = 0
KARS 241000Z 05009KT 18/15 A2999 RMK A01 T01810145  RH  083%=      5-min Rain = 0
KARS 241005Z 06009KT 18/14 A2999 RMK A01 T01790143  RH  083%=      5-min Rain = 0
KARS 241010Z 06008KT 18/14 A30 RMK A01 T01780142  RH  083%=      5-min Rain = 0
KARS 241015Z 06009KT 18/14 A30 RMK A01 T01760142  RH  084%=      5-min Rain = 0
KARS 241020Z 06008KT 18/14 A2999 RMK A01 T01760141  RH  084%=      5-min Rain = 0
KARS 241025Z 06009KT 18/14 A2999 RMK A01 T01750140  RH  084%=      5-min Rain = 0
KARS 241030Z 06009KT 17/14 A2999 RMK A01 T01740139  RH  083%=      5-min Rain = 0
KARS 241035Z 06009KT 17/14 A2999 RMK A01 T01740138  RH  083%=      5-min Rain = 0
KARS 241040Z 06009KT 17/14 A2999 RMK A01 T01730137  RH  083%=      5-min Rain = 0
KARS 241045Z 06009KT 17/14 A2999 RMK A01 T01730138  RH  083%=      5-min Rain = 0
KARS 241050Z 06008KT 17/14 A2999 RMK A01 T01730138  RH  083%=      5-min Rain = 0
KARS 241055Z 06008KT 17/14 A30 RMK A01 T01730138  RH  084%=      5-min Rain = 0
KARS 241100Z 06007KT 17/14 A30 RMK A01 T01730139  RH  084%=      5-min Rain = 0
KARS 241105Z 06009KT 17/14 A30 RMK A01 T01730139  RH  084%=      5-min Rain = 0
KARS 241110Z 06009KT 17/14 A30 RMK A01 T01740140  RH  084%=      5-min Rain = 0
KARS 241115Z 07009KT 17/14 A30 RMK A01 T01730139  RH  084%=      5-min Rain = 0
KARS 241120Z 07008KT 17/14 A30 RMK A01 T01730139  RH  084%=      5-min Rain = 0
KARS 241125Z 06008KT 17/14 A3001 RMK A01 T01720139  RH  085%=      5-min Rain = 0
KARS 241130Z 06008KT 17/14 A3001 RMK A01 T01720140  RH  085%=      5-min Rain = 0
KARS 241135Z 07009KT 17/14 A3001 RMK A01 T01740143  RH  085%=      5-min Rain = 0
KARS 241140Z 06010KT 18/15 A3001 RMK A01 T01780145  RH  085%=      5-min Rain = 0
KARS 241145Z 06010KT 18/14 A3001 RMK A01 T01790144  RH  083%=      5-min Rain = 0
KARS 241150Z 06011KT 18/14 A3002 RMK A01 T01800141  RH  081%=      5-min Rain = 0
KARS 241155Z 06012KT 18/13 A3002 RMK A01 T01800131  RH  076%=      5-min Rain = 0
KARS 241200Z 06011KT 18/13 A3002 RMK A01 T01790128  RH  075%=      5-min Rain = 0
KARS 241205Z 06010KT 18/13 A3002 RMK A01 T01780127  RH  075%=      5-min Rain = 0
KARS 241210Z 06011KT 18/12 A3002 RMK A01 T01790124  RH  073%=      5-min Rain = 0
KARS 241215Z 06009KT 18/12 A3002 RMK A01 T01800120  RH  071%=      5-min Rain = 0
KARS 241220Z 06011KT 18/12 A3002 RMK A01 T01800116  RH  068%=      5-min Rain = 0
KARS 241225Z 06010KT 18/11 A3003 RMK A01 T01820114  RH  067%=      5-min Rain = 0
KARS 241230Z 05010KT 18/12 A3003 RMK A01 T01840115  RH  066%=      5-min Rain = 0
KARS 241235Z 06011KT 18/11 A3003 RMK A01 T01840113  RH  065%=      5-min Rain = 0
KARS 241240Z 06010KT 18/11 A3003 RMK A01 T01840112  RH  065%=      5-min Rain = 0
KARS 241245Z 05010KT 19/11 A3003 RMK A01 T01850113  RH  065%=      5-min Rain = 0
KARS 241250Z 05011KT 19/11 A3003 RMK A01 T01860113  RH  064%=      5-min Rain = 0
KARS 241255Z 05011KT 19/11 A3003 RMK A01 T01880112  RH  063%=      5-min Rain = 0
KARS 241300Z 05011KT 19/11 A3003 RMK A01 T01910113  RH  063%=      5-min Rain = 0
KARS 241305Z 05012KT 19/11 A3003 RMK A01 T01930111  RH  061%=      5-min Rain = 0
KARS 241310Z 05012KT 19/11 A3003 RMK A01 T01940110  RH  060%=      5-min Rain = 0
KARS 241315Z 05012KT 19/11 A3004 RMK A01 T01940110  RH  060%=      5-min Rain = 0
KARS 241320Z 05012KT 19/11 A3004 RMK A01 T01940109  RH  060%=      5-min Rain = 0
KARS 241325Z 04011G16KT 20/11 A3004 RMK A01 T01960111  RH  060%=      5-min Rain = 0
KARS 241330Z 04012KT 20/11 A3004 RMK A01 T01970111  RH  060%=      5-min Rain = 0
KARS 241335Z 05012KT 20/11 A3004 RMK A01 T01970112  RH  060%=      5-min Rain = 0
KARS 241340Z 05011KT 20/11 A3004 RMK A01 T02000112  RH  059%=      5-min Rain = 0
KARS 241345Z 05011KT 20/11 A3004 RMK A01 T02020113  RH  058%=      5-min Rain = 0
KARS 241350Z 05011KT 20/11 A3004 RMK A01 T02040113  RH  058%=      5-min Rain = 0
KARS 241355Z 05012KT 20/12 A3004 RMK A01 T02040115  RH  059%=      5-min Rain = 0
KARS 241400Z 06009KT 21/12 A3004 RMK A01 T02060120  RH  060%=      5-min Rain = 0
KARS 241405Z 06011KT 21/12 A3004 RMK A01 T02070123  RH  061%=      5-min Rain = 0
KARS 241410Z 06011KT 21/12 A3004 RMK A01 T02080124  RH  061%=      5-min Rain = 0
KARS 241415Z 06011KT 21/13 A3005 RMK A01 T02090125  RH  061%=      5-min Rain = 0
KARS 241420Z 06010KT 21/13 A3005 RMK A01 T02120127  RH  061%=      5-min Rain = 0
KARS 241425Z 07012KT 21/13 A3005 RMK A01 T02120129  RH  062%=      5-min Rain = 0
KARS 241430Z 07010KT 21/13 A3005 RMK A01 T02130131  RH  062%=      5-min Rain = 0
KARS 241435Z 07011KT 22/14 A3005 RMK A01 T02180135  RH  062%=      5-min Rain = 0
KARS 241440Z 07011KT 22/13 A3005 RMK A01 T02200134  RH  060%=      5-min Rain = 0
KARS 241445Z 08012KT 22/13 A3005 RMK A01 T02210132  RH  059%=      5-min Rain = 0
KARS 241450Z 08013KT 22/13 A3005 RMK A01 T02240131  RH  058%=      5-min Rain = 0
KARS 241455Z 07013KT 22/13 A3005 RMK A01 T02240130  RH  057%=      5-min Rain = 0
KARS 241500Z 08013KT 23/13 A3005 RMK A01 T02250130  RH  057%=      5-min Rain = 0
KARS 241505Z 07012KT 23/13 A3005 RMK A01 T02270129  RH  056%=      5-min Rain = 0
KARS 241510Z 08013KT 23/13 A3005 RMK A01 T02300127  RH  054%=      5-min Rain = 0
KARS 241515Z 08013G18KT 23/12 A3005 RMK A01 T02310124  RH  053%=      5-min Rain = 0
KARS 241520Z 09014KT 23/13 A3005 RMK A01 T02320125  RH  053%=      5-min Rain = 0
KARS 241525Z 09013KT 23/13 A3005 RMK A01 T02320126  RH  053%=      5-min Rain = 0
KARS 241530Z 08012G17KT 24/13 A3005 RMK A01 T02360129  RH  053%=      5-min Rain = 0
KARS 241535Z 09013KT 24/13 A3005 RMK A01 T02390126  RH  051%=      5-min Rain = 0
KARS 241540Z 09014G19KT 24/12 A3005 RMK A01 T02390122  RH  050%=      5-min Rain = 0
KARS 241545Z 09016KT 24/12 A3005 RMK A01 T02410120  RH  049%=      5-min Rain = 0
KARS 241550Z 10015G20KT 24/12 A3005 RMK A01 T02410119  RH  048%=      5-min Rain = 0
KARS 241555Z 10014G19KT 24/12 A3004 RMK A01 T02440118  RH  047%=      5-min Rain = 0
KARS 241600Z 10015G20KT 24/12 A3004 RMK A01 T02440119  RH  047%=      5-min Rain = 0
KARS 241605Z 10016KT 25/12 A3004 RMK A01 T02450118  RH  047%=      5-min Rain = 0
KARS 241610Z 10016G22KT 25/12 A3004 RMK A01 T02480117  RH  046%=      5-min Rain = 0
KARS 241615Z 10014G20KT 25/12 A3004 RMK A01 T02490117  RH  045%=      5-min Rain = 0
KARS 241620Z 10015KT 25/12 A3004 RMK A01 T02480115  RH  045%=      5-min Rain = 0
KARS 241625Z 10016KT 25/12 A3004 RMK A01 T02500117  RH  045%=      5-min Rain = 0
KARS 241630Z 10014G19KT 25/12 A3004 RMK A01 T02520117  RH  044%=      5-min Rain = 0
KARS 241635Z 10015G21KT 25/12 A3004 RMK A01 T02530116  RH  044%=      5-min Rain = 0
KARS 241640Z 10015G23KT 26/12 A3004 RMK A01 T02550116  RH  043%=      5-min Rain = 0
KARS 241645Z 11015G22KT 26/12 A3004 RMK A01 T02550117  RH  044%=      5-min Rain = 0
KARS 241650Z 10017KT 26/12 A3004 RMK A01 T02560115  RH  043%=      5-min Rain = 0
KARS 241655Z 11014KT 26/12 A3004 RMK A01 T02570117  RH  043%=      5-min Rain = 0
KARS 241700Z 10015G20KT 26/12 A3004 RMK A01 T02610118  RH  043%=      5-min Rain = 0
KARS 241705Z 10012G17KT 26/12 A3004 RMK A01 T02600119  RH  043%=      5-min Rain = 0
KARS 241710Z 10015G21KT 26/12 A3004 RMK A01 T02630121  RH  043%=      5-min Rain = 0
KARS 241715Z 10012G17KT 26/12 A3004 RMK A01 T02630121  RH  043%=      5-min Rain = 0
KARS 241720Z 11014G19KT 26/12 A3004 RMK A01 T02630124  RH  044%=      5-min Rain = 0
KARS 241725Z 09011G16KT 26/12 A3003 RMK A01 T02630122  RH  043%=      5-min Rain = 0
KARS 241730Z 11013G20KT 26/12 A3004 RMK A01 T02630124  RH  044%=      5-min Rain = 0
KARS 241735Z 11010G18KT 26/12 A3003 RMK A01 T02620122  RH  043%=      5-min Rain = 0
KARS 241740Z 09013KT 27/12 A3003 RMK A01 T02660122  RH  042%=      5-min Rain = 0
KARS 241745Z 11012G18KT 27/12 A3003 RMK A01 T02660121  RH  042%=      5-min Rain = 0
KARS 241750Z 11010KT 27/12 A3003 RMK A01 T02660123  RH  043%=      5-min Rain = 0
KARS 241755Z 10010G17KT 27/12 A3003 RMK A01 T02700123  RH  042%=      5-min Rain = 0
KARS 241805Z 11010G17KT 27/12 A3003 RMK A01 T02670121  RH  042%=      5-min Rain = 0
KARS 241810Z 11013G18KT 27/13 A3003 RMK A01 T02700125  RH  042%=      5-min Rain = 0
KARS 241815Z 10009G14KT 27/12 A3002 RMK A01 T02680120  RH  041%=      5-min Rain = 0
KARS 241820Z 11010G16KT 27/12 A3002 RMK A01 T02730124  RH  041%=      5-min Rain = 0
KARS 241825Z 11014KT 27/12 A3002 RMK A01 T02740123  RH  041%=      5-min Rain = 0
KARS 241830Z 11010G15KT 27/12 A3002 RMK A01 T02720121  RH  040%=      5-min Rain = 0
KARS 241835Z 10011G16KT 28/12 A3002 RMK A01 T02760122  RH  040%=      5-min Rain = 0
KARS 241840Z 11010G17KT 28/12 A3002 RMK A01 T02760122  RH  040%=      5-min Rain = 0
KARS 241845Z 09007KT 27/12 A3002 RMK A01 T02740122  RH  041%=      5-min Rain = 0
KARS 241850Z 13011G16KT 28/12 A3002 RMK A01 T02780122  RH  040%=      5-min Rain = 0
KARS 241855Z 13008G16KT 28/13 A3001 RMK A01 T02790125  RH  040%=      5-min Rain = 0
KARS 241900Z 11008KT 28/12 A3001 RMK A01 T02780123  RH  040%=      5-min Rain = 0
KARS 241905Z 10011G17KT 28/13 A3001 RMK A01 T02810126  RH  040%=      5-min Rain = 0
KARS 241910Z 14010KT 28/13 A3001 RMK A01 T02840126  RH  039%=      5-min Rain = 0
KARS 241915Z 14009KT 29/13 A3001 RMK A01 T02860125  RH  038%=      5-min Rain = 0
KARS 241920Z 13009KT 28/12 A3001 RMK A01 T02840121  RH  038%=      5-min Rain = 0
KARS 241925Z 12012G17KT 29/13 A3001 RMK A01 T02850126  RH  039%=      5-min Rain = 0
KARS 241930Z 11008G13KT 28/12 A30 RMK A01 T02820120  RH  038%=      5-min Rain = 0
KARS 241935Z 11007G12KT 29/12 A30 RMK A01 T02850119  RH  037%=      5-min Rain = 0
KARS 241940Z 13010G16KT 29/13 A30 RMK A01 T02870126  RH  038%=      5-min Rain = 0
KARS 241945Z 15009KT 29/12 A30 RMK A01 T02880123  RH  037%=      5-min Rain = 0
KARS 241950Z 12010G15KT 29/12 A30 RMK A01 T02870124  RH  038%=      5-min Rain = 0
KARS 241955Z 12010G16KT 29/12 A30 RMK A01 T02900124  RH  037%=      5-min Rain = 0
KARS 242000Z 11010KT 29/12 A30 RMK A01 T02900122  RH  037%=      5-min Rain = 0
KARS 242005Z 12010KT 29/12 A2999 RMK A01 T02920122  RH  037%=      5-min Rain = 0
KARS 242010Z 11010G15KT 29/12 A2999 RMK A01 T02900120  RH  036%=      5-min Rain = 0
KARS 242015Z 15008KT 29/12 A2999 RMK A01 T02930122  RH  036%=      5-min Rain = 0
KARS 242020Z 14007G13KT 29/12 A2999 RMK A01 T02930121  RH  036%=      5-min Rain = 0
KARS 242025Z 16008KT 29/12 A2999 RMK A01 T02940116  RH  034%=      5-min Rain = 0
KARS 242030Z 14009G16KT 29/12 A2999 RMK A01 T02930118  RH  035%=      5-min Rain = 0
KARS 242035Z 11009G16KT 30/12 A2999 RMK A01 T02950123  RH  036%=      5-min Rain = 0
KARS 242040Z 11008G14KT 30/12 A2998 RMK A01 T02950121  RH  036%=      5-min Rain = 0
KARS 242045Z 11010G16KT 30/12 A2998 RMK A01 T02970120  RH  035%=      5-min Rain = 0
KARS 242050Z 14009G15KT 30/12 A2998 RMK A01 T03000124  RH  035%=      5-min Rain = 0
KARS 242055Z 11007KT 30/12 A2998 RMK A01 T02960122  RH  036%=      5-min Rain = 0
KARS 242100Z 12010G16KT 30/13 A2998 RMK A01 T02970133  RH  038%=      5-min Rain = 0
KARS 242105Z 12009G15KT 30/13 A2998 RMK A01 T03000131  RH  037%=      5-min Rain = 0
KARS 242110Z 16007G14KT 30/13 A2997 RMK A01 T02990127  RH  036%=      5-min Rain = 0
KARS 242115Z 13012KT 30/13 A2997 RMK A01 T02980131  RH  038%=      5-min Rain = 0
KARS 242120Z 15006G11KT 30/13 A2997 RMK A01 T02960133  RH  038%=      5-min Rain = 0
KARS 242125Z 13008G14KT 30/14 A2997 RMK A01 T03000135  RH  038%=      5-min Rain = 0
KARS 242130Z 11008G15KT 30/14 A2997 RMK A01 T03010137  RH  038%=      5-min Rain = 0
KARS 242135Z 14011G18KT 30/14 A2997 RMK A01 T03020140  RH  039%=      5-min Rain = 0
KARS 242140Z 13008G15KT 30/14 A2997 RMK A01 T03010142  RH  040%=      5-min Rain = 0
KARS 242145Z 14007KT 30/14 A2996 RMK A01 T03010143  RH  040%=      5-min Rain = 0
KARS 242150Z 14010G16KT 30/14 A2996 RMK A01 T03030141  RH  039%=      5-min Rain = 0
KARS 242155Z 16008G13KT 30/14 A2996 RMK A01 T03010140  RH  039%=      5-min Rain = 0
KARS 242200Z 15008G15KT 30/14 A2995 RMK A01 T03020143  RH  040%=      5-min Rain = 0
KARS 242205Z 13007KT 30/15 A2995 RMK A01 T03020146  RH  040%=      5-min Rain = 0
KARS 242210Z 14007G13KT 30/14 A2995 RMK A01 T03020143  RH  040%=      5-min Rain = 0
KARS 242215Z 18010G16KT 30/14 A2995 RMK A01 T03020140  RH  039%=      5-min Rain = 0
KARS 242220Z 19007G13KT 30/14 A2994 RMK A01 T03010144  RH  040%=      5-min Rain = 0
KARS 242225Z 14008G14KT 30/15 A2994 RMK A01 T03030146  RH  040%=      5-min Rain = 0
KARS 242230Z 14008KT 30/15 A2994 RMK A01 T03030146  RH  040%=      5-min Rain = 0
KARS 242235Z 16007KT 30/14 A2994 RMK A01 T03030140  RH  039%=      5-min Rain = 0
KARS 242240Z 18004G12KT 30/14 A2994 RMK A01 T03010138  RH  039%=      5-min Rain = 0
KARS 242245Z 16005G15KT 30/14 A2993 RMK A01 T03010140  RH  039%=      5-min Rain = 0
KARS 242250Z 14008G14KT 30/14 A2993 RMK A01 T03010141  RH  040%=      5-min Rain = 0
KARS 242255Z 15003KT 30/14 A2993 RMK A01 T03020142  RH  039%=      5-min Rain = 0
KARS 242300Z 17005KT 30/14 A2993 RMK A01 T03030144  RH  040%=      5-min Rain = 0
KARS 242305Z 16005KT 30/14 A2993 RMK A01 T03000143  RH  040%=      5-min Rain = 0
KARS 242310Z 14009KT 30/15 A2993 RMK A01 T03000147  RH  041%=      5-min Rain = 0
KARS 242315Z 12007KT 30/15 A2993 RMK A01 T03020145  RH  040%=      5-min Rain = 0
KARS 242320Z 11004G9KT 30/14 A2992 RMK A01 T03000144  RH  040%=      5-min Rain = 0
KARS 242325Z 14007G13KT 30/15 A2992 RMK A01 T03030150  RH  041%=      5-min Rain = 0
KARS 242330Z 13010KT 30/15 A2992 RMK A01 T03020148  RH  041%=      5-min Rain = 0
KARS 242335Z 13009KT 30/15 A2991 RMK A01 T03010149  RH  041%=      5-min Rain = 0
KARS 242340Z 13009KT 30/15 A2991 RMK A01 T03020146  RH  040%=      5-min Rain = 0
KARS 242345Z 11008KT 30/14 A2991 RMK A01 T02960143  RH  041%=      5-min Rain = 0
KARS 242350Z 12009KT 30/15 A2991 RMK A01 T02990146  RH  041%=      5-min Rain = 0
KARS 242355Z 12012KT 30/15 A2991 RMK A01 T03010149  RH  041%=      5-min Rain = 0
KARS 250000Z 12012KT 30/15 A299 RMK A01 T02990149  RH  042%=      5-min Rain = 0
KARS 250005Z 12010KT 30/15 A299 RMK A01 T02980149  RH  042%=      5-min Rain = 0
KARS 250010Z 11010KT 30/15 A2991 RMK A01 T02960148  RH  043%=      5-min Rain = 0
KARS 250015Z 11009KT 29/15 A299 RMK A01 T02940147  RH  043%=      5-min Rain = 0
KARS 250020Z 11010KT 30/15 A2991 RMK A01 T02960148  RH  042%=      5-min Rain = 0
KARS 250025Z 11010G15KT 29/15 A2991 RMK A01 T02940149  RH  043%=      5-min Rain = 0
KARS 250030Z 09012KT 29/15 A2989 RMK A01 T02930153  RH  045%=      5-min Rain = 0
KARS 250035Z 10011KT 30/15 A299 RMK A01 T02950154  RH  044%=      5-min Rain = 0
KARS 250040Z 09014KT 29/15 A2989 RMK A01 T02910153  RH  045%=      5-min Rain = 0
KARS 250045Z 09014KT 29/15 A2989 RMK A01 T02890152  RH  046%=      5-min Rain = 0
KARS 250050Z 09012KT 29/15 A299 RMK A01 T02900152  RH  045%=      5-min Rain = 0
KARS 250055Z 09013KT 29/15 A2992 RMK A01 T02900152  RH  045%=      5-min Rain = 0
KARS 250100Z 11016KT 29/15 A2994 RMK A01 T02900153  RH  045%=      5-min Rain = 0
KARS 250105Z 11015KT 29/15 A2993 RMK A01 T02890154  RH  046%=      5-min Rain = 0
KARS 250110Z 11012KT 29/15 A2993 RMK A01 T02870154  RH  046%=      5-min Rain = 0
KARS 250115Z 13012KT 29/16 A2994 RMK A01 T02860155  RH  047%=      5-min Rain = 0
KARS 250120Z 14014G20KT 28/16 A2995 RMK A01 T02830158  RH  049%=      5-min Rain = 0
KARS 250125Z 16027G37KT 26/17 A2996 RMK A01 T02590167  RH  060%=      5-min Rain = 0
KARS 250130Z 15018G25KT 23/18 A2997 RMK A01 T02330176  RH  074%=      5-min Rain = 0
KARS 250135Z 13015G20KT 23/18 A2996 RMK A01 T02320177  RH  075%=      5-min Rain = 0
KARS 250140Z 13012G18KT 23/18 A2996 RMK A01 T02320175  RH  074%=      5-min Rain = 0
KARS 250145Z 13018G23KT 24/17 A2995 RMK A01 T02400168  RH  067%=      5-min Rain = 0
KARS 250150Z 12015G22KT 24/17 A2995 RMK A01 T02400169  RH  068%=      5-min Rain = 0
KARS 250155Z 12014KT 24/17 A2994 RMK A01 T02360170  RH  069%=      5-min Rain = 0
KARS 250200Z 12013G19KT 24/17 A2994 RMK A01 T02420170  RH  067%=      5-min Rain = 0
KARS 250205Z 12011KT 24/17 A2995 RMK A01 T02380174  RH  071%=      5-min Rain = 0
KARS 250210Z 13010KT 24/18 A2994 RMK A01 T02350178  RH  074%=      5-min Rain = 0
KARS 250215Z 14010KT 23/18 A2994 RMK A01 T02340181  RH  076%=      5-min Rain = 0
KARS 250220Z 14010KT 23/18 A2994 RMK A01 T02320183  RH  078%=      5-min Rain = 0
KARS 250225Z 13008KT 23/18 A2994 RMK A01 T02300184  RH  080%=      5-min Rain = 0
KARS 250230Z 13008KT 23/19 A2994 RMK A01 T02290185  RH  080%=      5-min Rain = 0
KARS 250235Z 12009KT 23/18 A2994 RMK A01 T02310184  RH  079%=      5-min Rain = 0
KARS 250240Z 12011KT 24/18 A2994 RMK A01 T02360181  RH  075%=      5-min Rain = 0
KARS 250245Z 12012KT 24/18 A2994 RMK A01 T02380181  RH  074%=      5-min Rain = 0
KARS 250250Z 11011KT 24/18 A2994 RMK A01 T02380181  RH  075%=      5-min Rain = 0
KARS 250255Z 11011KT 24/18 A2994 RMK A01 T02370182  RH  076%=      5-min Rain = 0
KARS 250300Z 11011KT 24/18 A2994 RMK A01 T02360182  RH  076%=      5-min Rain = 0
KARS 250305Z 11010KT 24/18 A2994 RMK A01 T02350183  RH  077%=      5-min Rain = 0
KARS 250310Z 11010KT 23/18 A2994 RMK A01 T02340183  RH  077%=      5-min Rain = 0
KARS 250315Z 10010KT 23/18 A2995 RMK A01 T02320182  RH  077%=      5-min Rain = 0
KARS 250320Z 10010KT 23/18 A2995 RMK A01 T02310181  RH  078%=      5-min Rain = 0
KARS 250325Z 11010KT 23/18 A2995 RMK A01 T02290181  RH  078%=      5-min Rain = 0
KARS 250330Z 12010KT 23/18 A2996 RMK A01 T02290180  RH  078%=      5-min Rain = 0
KARS 250335Z 13011KT 23/18 A2996 RMK A01 T02290180  RH  078%=      5-min Rain = 0
KARS 250340Z 13011KT 23/18 A2997 RMK A01 T02300180  RH  077%=      5-min Rain = 0
KARS 250345Z 13010KT 23/18 A2997 RMK A01 T02290180  RH  078%=      5-min Rain = 0
KARS 250350Z 13011KT 23/18 A2997 RMK A01 T02280181  RH  079%=      5-min Rain = 0
KARS 250355Z 13010KT 23/18 A2998 RMK A01 T02260181  RH  079%=      5-min Rain = 0
KARS 250400Z 12010KT 23/18 A2998 RMK A01 T02260181  RH  080%=      5-min Rain = 0
KARS 250405Z 13009KT 23/18 A2998 RMK A01 T02250181  RH  080%=      5-min Rain = 0
KARS 250410Z 13008KT 22/18 A2998 RMK A01 T02240181  RH  081%=      5-min Rain = 0
KARS 250415Z 14008KT 22/18 A2999 RMK A01 T02240181  RH  081%=      5-min Rain = 0
KARS 250420Z 14009KT 22/18 A2999 RMK A01 T02240181  RH  081%=      5-min Rain = 0
KARS 250425Z 15009KT 22/18 A2999 RMK A01 T02240181  RH  081%=      5-min Rain = 0
KARS 250430Z 15010KT 22/18 A2999 RMK A01 T02240182  RH  081%=      5-min Rain = 0
KARS 250435Z 15011KT 23/18 A30 RMK A01 T02250184  RH  082%=      5-min Rain = 0
KARS 250440Z 15012KT 23/19 A30 RMK A01 T02280186  RH  082%=      5-min Rain = 0
KARS 250445Z 15012KT 23/19 A30 RMK A01 T02290188  RH  082%=      5-min Rain = 0
KARS 250450Z 15013KT 23/19 A30 RMK A01 T02280190  RH  083%=      5-min Rain = 0
KARS 250455Z 15013KT 23/19 A30 RMK A01 T02280191  RH  084%=      5-min Rain = 0

Page generated in 0.0125 seconds.